createdAt,value
2023-01-12T00:01:54.585Z,71.47754
2023-01-12T00:03:54.400Z,70.7998
2023-01-12T00:05:54.357Z,71.08789
2023-01-12T00:07:54.364Z,71.06738
2023-01-12T00:09:54.241Z,71.13574
2023-01-12T00:13:00.051Z,70.71777
2023-01-12T00:15:00.015Z,71.05176
2023-01-12T00:17:00.217Z,70.76953
2023-01-12T00:19:00.001Z,71.12598
2023-01-12T00:21:00.104Z,70.45117
2023-01-12T00:23:00.020Z,70.46973
2023-01-12T00:25:00.030Z,71.22949
2023-01-12T00:28:42.373Z,70.63379
2023-01-12T00:30:42.364Z,71.01758
2023-01-12T00:32:42.449Z,70.42676
2023-01-12T00:34:42.397Z,70.55273
2023-01-12T00:36:42.368Z,70.3418
2023-01-12T00:38:42.350Z,70.69531
2023-01-12T00:40:42.361Z,70.36133
2023-01-12T00:42:52.737Z,70.73535
2023-01-12T00:44:52.728Z,70.45703
2023-01-12T00:46:52.896Z,70.39941
2023-01-12T00:48:53.082Z,70.53027
2023-01-12T00:50:52.987Z,70.02539
2023-01-12T00:52:52.841Z,70.625
2023-01-12T00:54:52.661Z,70.70801
2023-01-12T00:56:52.701Z,70.99609
2023-01-12T00:58:39.967Z,71.08691
2023-01-12T01:00:40.050Z,70.98047
2023-01-12T01:02:40.190Z,71.34766
2023-01-12T01:04:39.968Z,71.12305
2023-01-12T01:06:39.888Z,71.05273
2023-01-12T01:08:39.900Z,71.2959
2023-01-12T01:10:39.869Z,71.12109
2023-01-12T01:13:36.253Z,71.42188
2023-01-12T01:15:36.515Z,70.82617
2023-01-12T01:17:36.293Z,71.25
2023-01-12T01:19:36.317Z,70.99316
2023-01-12T01:21:36.353Z,71.05469
2023-01-12T01:23:36.256Z,71.12988
2023-01-12T01:25:36.310Z,71.05566
2023-01-12T01:28:48.735Z,70.92188
2023-01-12T01:30:48.839Z,70.57031
2023-01-12T01:32:48.715Z,70.17969
2023-01-12T01:34:48.909Z,69.99414
2023-01-12T01:36:48.853Z,70.4541
2023-01-12T01:38:48.914Z,70.75098
2023-01-12T01:40:48.925Z,71.06152
2023-01-12T01:44:13.775Z,71.33789
2023-01-12T01:46:13.859Z,71.05176
2023-01-12T01:48:13.770Z,71.24902
2023-01-12T01:50:13.967Z,71.42578
2023-01-12T01:52:13.813Z,70.74219
2023-01-12T01:54:13.750Z,70.89844
2023-01-12T01:56:13.823Z,70.93359
2023-01-12T01:59:07.469Z,70.90625
2023-01-12T02:01:07.585Z,71.14648
2023-01-12T02:03:07.663Z,71.30078
2023-01-12T02:05:07.494Z,70.80762
2023-01-12T02:07:07.521Z,70.93066
2023-01-12T02:09:07.569Z,71.07031
2023-01-12T02:11:07.495Z,70.89746
2023-01-12T02:14:52.768Z,70.46191
2023-01-12T02:16:52.792Z,70.34375
2023-01-12T02:18:52.805Z,70.86133
2023-01-12T02:20:52.785Z,71.3291
2023-01-12T02:22:52.800Z,70.26074
2023-01-12T02:24:52.835Z,70.78027
2023-01-12T02:26:52.771Z,70.87402
2023-01-12T02:29:46.312Z,71.3457
2023-01-12T02:31:46.335Z,70.77539
2023-01-12T02:33:46.348Z,71.15137
2023-01-12T02:35:46.310Z,70.99316
2023-01-12T02:37:46.302Z,70.5166
2023-01-12T02:39:46.342Z,70.75293
2023-01-12T02:41:46.367Z,70.78613
2023-01-12T02:45:13.688Z,69.91016
2023-01-12T02:47:13.637Z,70.28027
2023-01-12T02:49:13.633Z,70.0332
2023-01-12T02:51:13.624Z,70.24316
2023-01-12T02:53:13.589Z,70.0625
2023-01-12T02:55:13.626Z,70.24805
2023-01-12T02:57:13.839Z,70.19238
2023-01-12T02:59:32.526Z,70.34863
2023-01-12T03:01:32.618Z,70.49316
2023-01-12T03:03:32.527Z,70.87109
2023-01-12T03:05:32.492Z,70.8916
2023-01-12T03:07:32.464Z,70.86523
2023-01-12T03:09:32.496Z,70.74902
2023-01-12T03:11:32.615Z,70.55371
2023-01-12T03:13:32.655Z,71.01758
2023-01-12T03:15:07.575Z,71.27734
2023-01-12T03:17:07.583Z,71.40527
2023-01-12T03:19:07.603Z,71.32715
2023-01-12T03:21:07.574Z,71.38672
2023-01-12T03:23:07.537Z,71.55469
2023-01-12T03:25:07.567Z,71.83203
2023-01-12T03:27:07.553Z,71.87109
2023-01-12T03:29:48.977Z,71.9668
2023-01-12T03:31:48.957Z,71.91211
2023-01-12T03:33:48.931Z,71.71191
2023-01-12T03:35:48.995Z,71.5166
2023-01-12T03:37:48.909Z,71.5127
2023-01-12T03:39:48.895Z,71.46973
2023-01-12T03:41:48.947Z,71.26074
2023-01-12T03:43:48.955Z,71.19336
2023-01-12T03:45:36.467Z,71.60352
2023-01-12T03:47:36.394Z,71.67676
2023-01-12T03:49:36.377Z,71.00391
2023-01-12T03:51:36.407Z,71.1582
2023-01-12T03:53:36.396Z,71.19238
2023-01-12T03:55:36.374Z,71.29785
2023-01-12T03:57:36.349Z,71.23438
2023-01-12T04:00:14.559Z,71.21973
2023-01-12T04:02:14.640Z,71.48145
2023-01-12T04:04:14.590Z,71.53613
2023-01-12T04:06:14.546Z,71.55762
2023-01-12T04:08:14.612Z,71.65332
2023-01-12T04:10:14.602Z,72.19531
2023-01-12T04:12:14.536Z,72.05566
2023-01-12T04:15:39.328Z,71.93359
2023-01-12T04:17:39.537Z,71.30566
2023-01-12T04:19:39.473Z,71.99414
2023-01-12T04:21:39.408Z,71.4043
2023-01-12T04:23:39.395Z,71.08691
2023-01-12T04:25:39.503Z,71.08203
2023-01-12T04:27:39.445Z,71.3584
2023-01-12T04:30:34.913Z,71.17578
2023-01-12T04:32:34.841Z,71.33496
2023-01-12T04:34:34.825Z,71.33887
2023-01-12T04:36:34.777Z,71.35449
2023-01-12T04:38:34.733Z,71.02344
2023-01-12T04:40:34.755Z,71.09277
2023-01-12T04:42:34.776Z,71.46387
2023-01-12T04:46:00.729Z,71.53809
2023-01-12T04:48:00.732Z,71.51953
2023-01-12T04:50:00.852Z,71.34863
2023-01-12T04:52:00.672Z,71.54004
2023-01-12T04:54:00.640Z,71.89844
2023-01-12T04:56:00.752Z,71.56055
2023-01-12T04:58:00.657Z,71.65234
2023-01-12T05:01:36.475Z,71.74414
2023-01-12T05:03:36.203Z,71.54102
2023-01-12T05:05:36.327Z,72.05273
2023-01-12T05:07:36.342Z,71.75098
2023-01-12T05:09:36.517Z,71.5
2023-01-12T05:11:36.306Z,71.4541
2023-01-12T05:13:36.298Z,71.58301
2023-01-12T05:16:38.503Z,71.27637
2023-01-12T05:18:38.347Z,71.66211
2023-01-12T05:20:38.267Z,71.72461
2023-01-12T05:22:38.265Z,72.16992
2023-01-12T05:24:38.261Z,72.12793
2023-01-12T05:26:38.205Z,71.20605
2023-01-12T05:28:38.203Z,71.30273
2023-01-12T05:31:12.392Z,71.25293
2023-01-12T05:33:12.195Z,71.32227
2023-01-12T05:35:12.247Z,71.47559
2023-01-12T05:37:12.259Z,71.49609
2023-01-12T05:39:12.226Z,71.75098
2023-01-12T05:41:12.231Z,71.28125
2023-01-12T05:43:12.221Z,70.6875
2023-01-12T05:45:12.171Z,71.29785
2023-01-12T05:46:51.684Z,71.80273
2023-01-12T05:48:51.697Z,71.74902
2023-01-12T05:50:51.718Z,71.81445
2023-01-12T05:52:51.729Z,71.38379
2023-01-12T05:54:51.708Z,70.82813
2023-01-12T05:56:51.665Z,71.29688
2023-01-12T05:58:51.665Z,71.29785
2023-01-12T06:02:19.269Z,71.06152
2023-01-12T06:04:19.351Z,71.37598
2023-01-12T06:06:19.215Z,71.20313
2023-01-12T06:08:19.234Z,71.51074
2023-01-12T06:10:19.245Z,71.29492
2023-01-12T06:12:19.174Z,71.62695
2023-01-12T06:14:19.185Z,71.56348
2023-01-12T06:16:57.103Z,71.06641
2023-01-12T06:18:57.085Z,71.20313
2023-01-12T06:20:57.119Z,71.7373
2023-01-12T06:22:57.093Z,72.00293
2023-01-12T06:24:57.145Z,71.70898
2023-01-12T06:26:57.228Z,71.9541
2023-01-12T06:28:57.088Z,71.91895
2023-01-12T06:32:06.599Z,71.49805
2023-01-12T06:34:06.583Z,71.77441
2023-01-12T06:36:06.587Z,71.70703
2023-01-12T06:38:06.570Z,71.93652
2023-01-12T06:40:06.617Z,71.91602
2023-01-12T06:42:06.632Z,71.69238
2023-01-12T06:44:06.639Z,71.94336
2023-01-12T06:47:29.914Z,72.55664
2023-01-12T06:49:29.983Z,72.41602
2023-01-12T06:51:29.887Z,72.63867
2023-01-12T06:53:29.909Z,72.73145
2023-01-12T06:55:29.945Z,72.56738
2023-01-12T06:57:29.898Z,72.84277
2023-01-12T06:59:29.846Z,72.49805
2023-01-12T07:02:56.144Z,72.37598
2023-01-12T07:04:56.125Z,72.61816
2023-01-12T07:06:56.152Z,72.98926
2023-01-12T07:08:56.072Z,72.6582
2023-01-12T07:10:56.417Z,72.49902
2023-01-12T07:12:56.099Z,72.50781
2023-01-12T07:14:56.154Z,72.72852
2023-01-12T07:17:55.796Z,72.58496
2023-01-12T07:19:55.843Z,72.21582
2023-01-12T07:21:55.737Z,71.69238
2023-01-12T07:23:55.885Z,71.62305
2023-01-12T07:25:55.645Z,71.23242
2023-01-12T07:27:55.994Z,70.63574
2023-01-12T07:29:55.958Z,71.54785
2023-01-12T07:33:02.539Z,71.68945
2023-01-12T07:35:02.558Z,71.17285
2023-01-12T07:37:02.544Z,71.49121
2023-01-12T07:39:02.575Z,71.64746
2023-01-12T07:41:02.800Z,72.05078
2023-01-12T07:43:02.618Z,71.73438
2023-01-12T07:45:02.523Z,71.51563
2023-01-12T07:48:08.126Z,71.41895
2023-01-12T07:50:08.110Z,71.44727
2023-01-12T07:52:08.118Z,71.33398
2023-01-12T07:54:08.146Z,71.83105
2023-01-12T07:56:08.159Z,71.98047
2023-01-12T07:58:08.289Z,71.0166
2023-01-12T08:00:08.181Z,71.27246
2023-01-12T08:03:37.988Z,70.38086
2023-01-12T08:05:38.223Z,70.8584
2023-01-12T08:07:37.993Z,71.2373
2023-01-12T08:09:37.934Z,70.94824
2023-01-12T08:11:37.929Z,70.43066
2023-01-12T08:13:37.987Z,70.57617
2023-01-12T08:15:37.948Z,71.00293
2023-01-12T08:18:35.689Z,71.06543
2023-01-12T08:20:35.706Z,71.33887
2023-01-12T08:22:35.646Z,70.8418
2023-01-12T08:24:35.788Z,70.06934
2023-01-12T08:26:35.668Z,70.10547
2023-01-12T08:28:35.668Z,69.68066
2023-01-12T08:30:35.814Z,70.16504
2023-01-12T08:33:14.354Z,69.25098
2023-01-12T08:35:14.348Z,68.9834
2023-01-12T08:37:14.356Z,69.50879
2023-01-12T08:39:14.397Z,69.62988
2023-01-12T08:41:14.343Z,70.16406
2023-01-12T08:43:14.353Z,69.62793
2023-01-12T08:45:14.356Z,69.38379
2023-01-12T08:47:14.421Z,70.62598
2023-01-12T08:48:29.507Z,70.76074
2023-01-12T08:50:29.494Z,68.71387
2023-01-12T08:52:29.550Z,69.75293
2023-01-12T08:54:29.462Z,70.44824
2023-01-12T08:56:29.500Z,69.74902
2023-01-12T08:58:29.499Z,69.75391
2023-01-12T09:00:29.541Z,68.75781
2023-01-12T09:03:40.105Z,69.90137
2023-01-12T09:05:40.059Z,70.15527
2023-01-12T09:07:40.034Z,69.77051
2023-01-12T09:09:40.061Z,70.31445
2023-01-12T09:11:39.996Z,69.15234
2023-01-12T09:13:40.487Z,68.07715
2023-01-12T09:15:40.042Z,68.30664
2023-01-12T09:19:23.233Z,68.13086
2023-01-12T09:21:23.055Z,68.86816
2023-01-12T09:23:23.249Z,67.92578
2023-01-12T09:25:23.197Z,68.02441
2023-01-12T09:27:23.024Z,68.74414
2023-01-12T09:29:23.032Z,67.94629
2023-01-12T09:31:23.042Z,68.37793
2023-01-12T09:34:05.000Z,69.19434
2023-01-12T09:36:05.019Z,68.43652
2023-01-12T09:38:04.971Z,68.07031
2023-01-12T09:40:05.007Z,68.16113
2023-01-12T09:42:05.016Z,67.87109
2023-01-12T09:44:05.046Z,67.98145
2023-01-12T09:46:05.201Z,68.25098
2023-01-12T09:49:32.599Z,68.04492
2023-01-12T09:51:32.617Z,67.50879
2023-01-12T09:53:32.615Z,67.97461
2023-01-12T09:55:32.583Z,69.2334
2023-01-12T09:57:32.538Z,68.30371
2023-01-12T09:59:32.558Z,67.80566
2023-01-12T10:01:32.645Z,67.91895
2023-01-12T10:05:05.316Z,67.29004
2023-01-12T10:07:05.303Z,67.28809
2023-01-12T10:09:05.124Z,67.66211
2023-01-12T10:11:05.124Z,68.08594
2023-01-12T10:13:05.155Z,66.61035
2023-01-12T10:15:05.142Z,67.875
2023-01-12T10:17:05.156Z,69.26367
2023-01-12T10:20:01.597Z,67.65918
2023-01-12T10:22:01.654Z,68.89844
2023-01-12T10:24:01.667Z,67.12402
2023-01-12T10:26:01.704Z,66.90918
2023-01-12T10:28:01.573Z,66.79883
2023-01-12T10:30:01.478Z,66.84277
2023-01-12T10:32:01.678Z,66.89648
2023-01-12T10:35:23.961Z,67.88965
2023-01-12T10:37:24.084Z,68.06055
2023-01-12T10:39:24.012Z,66.75098
2023-01-12T10:41:24.017Z,66.9082
2023-01-12T10:43:24.148Z,66.58398
2023-01-12T10:45:24.033Z,67.66016
2023-01-12T10:47:23.987Z,66.7627
2023-01-12T10:50:30.483Z,66.82129
2023-01-12T10:52:30.438Z,66.4834
2023-01-12T10:54:30.514Z,66.66504
2023-01-12T10:56:30.444Z,66.61133
2023-01-12T10:58:30.465Z,67.62305
2023-01-12T11:00:30.436Z,67.33105
2023-01-12T11:02:30.486Z,66.97168
2023-01-12T11:04:54.046Z,66.01563
2023-01-12T11:06:54.082Z,66.48145
2023-01-12T11:08:54.055Z,66.25684
2023-01-12T11:10:54.113Z,66.64063
2023-01-12T11:12:54.089Z,66.94629
2023-01-12T11:14:54.161Z,67.10938
2023-01-12T11:16:54.336Z,66.25977
2023-01-12T11:20:39.209Z,67.23242
2023-01-12T11:22:39.102Z,67.80762
2023-01-12T11:24:38.978Z,67.15527
2023-01-12T11:26:39.131Z,66.20117
2023-01-12T11:28:38.978Z,67.13086
2023-01-12T11:30:39.092Z,67.8252
2023-01-12T11:32:38.932Z,68.95605
2023-01-12T11:35:34.531Z,68.04395
2023-01-12T11:37:34.585Z,68.37207
2023-01-12T11:39:34.464Z,68.07422
2023-01-12T11:41:34.495Z,68.73047
2023-01-12T11:43:34.664Z,67.93848
2023-01-12T11:45:34.596Z,67.65625
2023-01-12T11:47:34.545Z,67.60742
2023-01-12T11:50:51.667Z,67.02734
2023-01-12T11:52:51.636Z,68.4043
2023-01-12T11:54:51.583Z,67.85254
2023-01-12T11:56:51.708Z,67.47363
2023-01-12T11:58:51.697Z,67.47754
2023-01-12T12:00:51.746Z,67.91699
2023-01-12T12:02:51.669Z,68.17383
2023-01-12T12:06:07.103Z,67.47754
2023-01-12T12:08:07.037Z,67.47266
2023-01-12T12:10:07.076Z,68.19238
2023-01-12T12:12:07.065Z,66.55957
2023-01-12T12:14:07.806Z,67.42285
2023-01-12T12:16:07.129Z,67.61621
2023-01-12T12:18:07.046Z,67.45605
2023-01-12T12:20:49.548Z,66.12598
2023-01-12T12:22:49.555Z,67.6582
2023-01-12T12:24:49.621Z,67.07129
2023-01-12T12:26:49.625Z,67.11816
2023-01-12T12:28:49.737Z,67.03027
2023-01-12T12:30:49.693Z,67.51074
2023-01-12T12:32:49.740Z,68.02734
2023-01-12T12:36:20.395Z,67.34668
2023-01-12T12:38:20.422Z,67.42969
2023-01-12T12:40:20.443Z,67.76855
2023-01-12T12:42:20.411Z,67.40332
2023-01-12T12:44:20.438Z,67.83984
2023-01-12T12:46:20.531Z,67.59082
2023-01-12T12:48:20.478Z,67.31738
2023-01-12T12:51:19.712Z,67.0166
2023-01-12T12:53:19.763Z,67.85156
2023-01-12T12:55:19.719Z,67.22266
2023-01-12T12:57:19.682Z,66.68652
2023-01-12T12:59:19.699Z,66.44336
2023-01-12T13:01:20.171Z,67.2041
2023-01-12T13:03:19.754Z,66.08594
2023-01-12T13:06:32.270Z,65.06836
2023-01-12T13:08:32.316Z,65.22852
2023-01-12T13:10:32.331Z,65.72754
2023-01-12T13:12:32.283Z,65.55762
2023-01-12T13:14:32.273Z,65.96484
2023-01-12T13:16:32.253Z,66.23242
2023-01-12T13:18:32.320Z,65.3252
2023-01-12T13:21:34.922Z,65.58594
2023-01-12T13:23:34.730Z,65.40039
2023-01-12T13:25:34.867Z,65.97461
2023-01-12T13:27:34.906Z,65.63672
2023-01-12T13:29:34.724Z,65.34961
2023-01-12T13:31:35.002Z,65.58008
2023-01-12T13:33:34.849Z,64.7666
2023-01-12T13:37:21.415Z,65.6123
2023-01-12T13:39:21.322Z,65.00293
2023-01-12T13:41:21.336Z,65.76172
2023-01-12T13:43:21.324Z,65.43848
2023-01-12T13:45:21.374Z,65.43359
2023-01-12T13:47:21.375Z,66.02051
2023-01-12T13:49:21.377Z,64.67871
2023-01-12T13:51:43.022Z,64.82031
2023-01-12T13:53:43.023Z,65.0791
2023-01-12T13:55:42.993Z,65.4209
2023-01-12T13:57:43.048Z,65.79883
2023-01-12T13:59:42.946Z,65.2627
2023-01-12T14:01:43.229Z,65.69531
2023-01-12T14:03:43.002Z,65.60254
2023-01-12T14:05:43.187Z,65.44141
2023-01-12T14:07:00.405Z,65.79492
2023-01-12T14:09:00.228Z,66.00391
2023-01-12T14:11:00.155Z,66.10742
2023-01-12T14:13:00.172Z,65.86816
2023-01-12T14:15:00.067Z,66.25293
2023-01-12T14:17:06.149Z,65.93066
2023-01-12T14:19:00.098Z,66.14551
2023-01-12T14:22:34.137Z,65.58789
2023-01-12T14:24:34.155Z,65.54297
2023-01-12T14:26:34.140Z,65.63086
2023-01-12T14:28:34.125Z,66.19043
2023-01-12T14:30:34.100Z,65.8418
2023-01-12T14:32:36.320Z,66.60547
2023-01-12T14:34:34.121Z,66.72559
2023-01-12T14:37:44.467Z,66.6875
2023-01-12T14:39:44.431Z,66.20801
2023-01-12T14:41:44.406Z,67.04004
2023-01-12T14:43:44.437Z,67.80273
2023-01-12T14:45:44.406Z,67.24609
2023-01-12T14:47:44.455Z,66.5957
2023-01-12T14:49:44.435Z,66.79785
2023-01-12T14:52:58.752Z,68.49805
2023-01-12T14:54:58.735Z,67.98633
2023-01-12T14:56:58.838Z,67.65625
2023-01-12T14:58:58.911Z,67.26172
2023-01-12T15:00:58.927Z,66.94629
2023-01-12T15:02:58.860Z,66.70117
2023-01-12T15:04:58.757Z,66.22559
2023-01-12T15:07:58.952Z,66.4043
2023-01-12T15:09:59.082Z,66.36719
2023-01-12T15:11:58.992Z,66.32129
2023-01-12T15:13:58.954Z,66.01172
2023-01-12T15:15:59.090Z,67.26465
2023-01-12T15:17:59.125Z,66.8418
2023-01-12T15:19:58.946Z,67.20898
2023-01-12T15:22:41.344Z,67.60352
2023-01-12T15:24:41.342Z,68.0127
2023-01-12T15:26:41.937Z,68.27051
2023-01-12T15:28:41.438Z,67.92383
2023-01-12T15:30:41.409Z,67.45508
2023-01-12T15:32:48.660Z,67.25391
2023-01-12T15:34:41.301Z,67.11621
2023-01-12T15:36:41.331Z,66.93848
2023-01-12T15:37:59.508Z,66.9834
2023-01-12T15:39:59.584Z,67.12891
2023-01-12T15:41:59.489Z,66.91309
2023-01-12T15:43:59.537Z,67.13867
2023-01-12T15:45:59.507Z,67.49805
2023-01-12T15:47:59.493Z,67.48926
2023-01-12T15:49:59.451Z,67.53027
2023-01-12T15:53:40.047Z,67.47949
2023-01-12T15:55:40.163Z,67.11523
2023-01-12T15:57:40.094Z,66.7959
2023-01-12T15:59:40.075Z,66.71094
2023-01-12T16:01:40.267Z,66.52734
2023-01-12T16:04:09.829Z,67.11621
2023-01-12T16:05:40.056Z,67.26074
2023-01-12T16:08:25.493Z,67.39355
2023-01-12T16:10:25.482Z,67.30957
2023-01-12T16:12:25.501Z,67.70313
2023-01-12T16:14:25.451Z,68.18945
2023-01-12T16:16:25.520Z,68.25586
2023-01-12T16:18:25.489Z,68.49414
2023-01-12T16:20:25.472Z,68.56543
2023-01-12T16:24:11.747Z,68.24707
2023-01-12T16:26:11.679Z,68.50488
2023-01-12T16:28:11.691Z,68.54688
2023-01-12T16:30:11.739Z,68.29785
2023-01-12T16:32:11.922Z,68.47266
2023-01-12T16:34:11.624Z,69.2373
2023-01-12T16:36:11.626Z,68.55859
2023-01-12T16:38:58.468Z,68.52734
2023-01-12T16:40:58.365Z,68.46387
2023-01-12T16:42:58.558Z,68.32813
2023-01-12T16:44:58.368Z,68.85645
2023-01-12T16:46:58.578Z,68.75488
2023-01-12T16:48:58.798Z,69.22754
2023-01-12T16:50:58.593Z,69.22266
2023-01-12T16:54:00.478Z,69.44531
2023-01-12T16:56:00.689Z,68.52539
2023-01-12T16:58:00.549Z,68.71289
2023-01-12T17:00:01.052Z,69.06152
2023-01-12T17:02:00.989Z,68.96875
2023-01-12T17:04:00.607Z,69.02734
2023-01-12T17:06:00.669Z,68.91602
2023-01-12T17:08:49.895Z,69.50488
2023-01-12T17:10:49.430Z,69.50391
2023-01-12T17:12:59.301Z,69.39258
2023-01-12T17:14:49.465Z,69.64844
2023-01-12T17:16:49.696Z,69.28516
2023-01-12T17:18:49.551Z,69.56348
2023-01-12T17:20:49.545Z,69.7041
2023-01-12T17:22:49.512Z,69.31543
2023-01-12T17:24:31.285Z,68.73633
2023-01-12T17:26:31.385Z,69.06641
2023-01-12T17:28:31.294Z,69.19922
2023-01-12T17:30:31.498Z,69.19922
2023-01-12T17:32:31.171Z,68.50781
2023-01-12T17:34:31.230Z,68.29785
2023-01-12T17:36:31.338Z,68.69922
2023-01-12T17:39:13.489Z,69.43164
2023-01-12T17:41:13.451Z,68.84375
2023-01-12T17:43:13.584Z,68.94531
2023-01-12T17:45:13.519Z,68.86523
2023-01-12T17:47:13.365Z,68.65039
2023-01-12T17:49:13.504Z,68.55957
2023-01-12T17:51:13.363Z,68.3584
2023-01-12T17:54:28.815Z,67.78613
2023-01-12T17:56:28.837Z,68.35352
2023-01-12T17:58:28.955Z,69.15137
2023-01-12T18:00:28.764Z,68.82617
2023-01-12T18:02:28.721Z,69.14551
2023-01-12T18:04:28.770Z,68.54785
2023-01-12T18:06:28.743Z,68.75098
2023-01-12T18:09:52.735Z,68.60742
2023-01-12T18:11:52.539Z,69.1377
2023-01-12T18:13:52.475Z,68.68359
2023-01-12T18:15:52.733Z,68.49414
2023-01-12T18:17:52.625Z,69.03125
2023-01-12T18:19:52.542Z,68.41016
2023-01-12T18:21:52.482Z,68.12695
2023-01-12T18:25:13.023Z,68.38965
2023-01-12T18:27:12.487Z,68.75391
2023-01-12T18:29:12.512Z,68.79688
2023-01-12T18:31:12.680Z,68.56445
2023-01-12T18:33:12.779Z,68.97461
2023-01-12T18:35:12.504Z,69.66309
2023-01-12T18:37:14.005Z,69.1582
2023-01-12T18:39:46.567Z,68.88867
2023-01-12T18:41:46.643Z,68.61816
2023-01-12T18:43:46.548Z,69.10547
2023-01-12T18:45:46.697Z,69.3418
2023-01-12T18:47:46.649Z,69.5293
2023-01-12T18:49:46.702Z,68.95605
2023-01-12T18:51:46.893Z,68.04297
2023-01-12T18:53:46.713Z,68.77246
2023-01-12T18:55:40.013Z,68.73047
2023-01-12T18:57:40.088Z,68.25684
2023-01-12T18:59:42.233Z,67.85352
2023-01-12T19:01:40.401Z,67.63965
2023-01-12T19:03:40.685Z,68.68262
2023-01-12T19:05:41.680Z,68.76855
2023-01-12T19:07:40.137Z,68.5791
2023-01-12T19:10:45.221Z,68.74219
2023-01-12T19:12:45.226Z,68.75195
2023-01-12T19:14:45.251Z,68.8125
2023-01-12T19:16:45.322Z,69.09863
2023-01-12T19:18:45.234Z,68.93555
2023-01-12T19:20:45.206Z,68.84082
2023-01-12T19:22:45.589Z,68.96387
2023-01-12T19:25:13.233Z,68.87598
2023-01-12T19:27:13.362Z,68.43164
2023-01-12T19:29:13.344Z,68.28027
2023-01-12T19:31:13.419Z,68.93164
2023-01-12T19:33:13.339Z,68.43457
2023-01-12T19:35:13.199Z,68.29395
2023-01-12T19:37:13.257Z,68.28711
2023-01-12T19:39:13.285Z,68.09961
2023-01-12T19:41:08.988Z,68.98242
2023-01-12T19:43:09.017Z,68.96875
2023-01-12T19:45:08.967Z,68.66016
2023-01-12T19:47:09.134Z,68.68945
2023-01-12T19:49:08.979Z,68.77344
2023-01-12T19:51:11.318Z,68.63184
2023-01-12T19:53:08.999Z,68.55762
2023-01-12T19:56:14.534Z,68.39551
2023-01-12T19:58:14.475Z,68.2207
2023-01-12T20:00:14.483Z,67.46094
2023-01-12T20:02:14.567Z,67.94727
2023-01-12T20:04:14.411Z,68.1582
2023-01-12T20:06:15.129Z,68.09082
2023-01-12T20:08:14.345Z,67.9502
2023-01-12T20:11:41.667Z,67.48438
2023-01-12T20:13:41.689Z,67.19336
2023-01-12T20:15:41.825Z,68.28223
2023-01-12T20:17:41.633Z,68.17676
2023-01-12T20:19:41.692Z,67.96289
2023-01-12T20:21:41.690Z,67.26465
2023-01-12T20:23:41.705Z,67.45508
2023-01-12T20:26:39.340Z,67.58203
2023-01-12T20:28:39.225Z,67.63672
2023-01-12T20:30:39.290Z,67.9375
2023-01-12T20:32:39.295Z,68.20117
2023-01-12T20:34:39.251Z,68.00684
2023-01-12T20:36:39.328Z,68.18066
2023-01-12T20:38:39.270Z,68.11621
2023-01-12T20:41:27.264Z,68.16699
2023-01-12T20:43:27.230Z,68.40723
2023-01-12T20:45:27.250Z,68.60059
2023-01-12T20:47:27.255Z,68.76563
2023-01-12T20:49:27.289Z,68.76953
2023-01-12T20:51:27.301Z,68.83789
2023-01-12T20:53:27.268Z,68.5166
2023-01-12T20:56:26.928Z,68.54102
2023-01-12T20:58:27.110Z,68.35547
2023-01-12T21:00:26.927Z,68.85547
2023-01-12T21:02:26.920Z,68.85449
2023-01-12T21:04:26.945Z,68.50586
2023-01-12T21:06:26.943Z,68.46973
2023-01-12T21:08:26.925Z,68.54297
2023-01-12T21:11:25.876Z,68.58008
2023-01-12T21:13:25.966Z,68.50684
2023-01-12T21:15:25.987Z,68.63281
2023-01-12T21:17:25.847Z,68.67969
2023-01-12T21:19:25.910Z,68.6416
2023-01-12T21:21:25.916Z,68.60645
2023-01-12T21:23:26.003Z,69.37402
2023-01-12T21:25:25.866Z,70.00195
2023-01-12T21:27:18.564Z,70.20215
2023-01-12T21:29:18.564Z,70.55176
2023-01-12T21:31:18.700Z,69.90137
2023-01-12T21:33:18.587Z,70.12891
2023-01-12T21:35:18.587Z,70.69238
2023-01-12T21:37:18.706Z,70.16016
2023-01-12T21:39:18.539Z,69.86914
2023-01-12T21:42:28.992Z,70.02539
2023-01-12T21:44:29.071Z,70.08984
2023-01-12T21:46:29.006Z,70.2334
2023-01-12T21:48:29.014Z,70.56836
2023-01-12T21:50:29.302Z,70.9707
2023-01-12T21:52:29.020Z,70.70508
2023-01-12T21:54:29.071Z,70.31641
2023-01-12T21:57:11.689Z,70.38574
2023-01-12T21:59:11.689Z,70.76367
2023-01-12T22:01:11.995Z,70.90527
2023-01-12T22:03:11.660Z,71.08887
2023-01-12T22:05:11.734Z,70.87207
2023-01-12T22:07:11.645Z,70.98242
2023-01-12T22:09:11.705Z,70.55762
2023-01-12T22:12:58.908Z,70.36914
2023-01-12T22:14:58.868Z,70.13477
2023-01-12T22:16:58.852Z,70.25977
2023-01-12T22:18:58.876Z,69.92773
2023-01-12T22:20:58.923Z,70.83594
2023-01-12T22:22:58.855Z,70.9043
2023-01-12T22:24:58.939Z,71.0791
2023-01-12T22:27:34.536Z,70.82324
2023-01-12T22:29:34.548Z,70.71191
2023-01-12T22:31:34.596Z,71.03418
2023-01-12T22:33:34.510Z,71.11719
2023-01-12T22:35:34.543Z,70.54199
2023-01-12T22:37:34.494Z,70.47266
2023-01-12T22:39:34.520Z,70.54004
2023-01-12T22:42:31.972Z,70.68848
2023-01-12T22:44:31.985Z,70.57715
2023-01-12T22:46:31.970Z,71.07422
2023-01-12T22:48:31.953Z,71.18066
2023-01-12T22:50:31.954Z,70.89453
2023-01-12T22:52:31.931Z,70.9668
2023-01-12T22:54:31.956Z,71.05273
2023-01-12T22:56:31.957Z,71.42969
2023-01-12T22:58:29.197Z,71.10059
2023-01-12T23:00:29.066Z,71.28418
2023-01-12T23:02:29.336Z,70.94629
2023-01-12T23:04:29.081Z,70.96094
2023-01-12T23:06:29.085Z,71.02148
2023-01-12T23:08:29.115Z,70.84766
2023-01-12T23:10:29.229Z,70.97754
2023-01-12T23:13:00.529Z,71.3125
2023-01-12T23:15:00.616Z,71.17285
2023-01-12T23:17:00.520Z,71.0166
2023-01-12T23:19:00.689Z,71.01855
2023-01-12T23:21:00.510Z,71.50293
2023-01-12T23:23:00.550Z,71.57813
2023-01-12T23:25:00.531Z,71.13574
2023-01-12T23:28:51.884Z,70.57422
2023-01-12T23:30:51.967Z,70.89941
2023-01-12T23:32:51.897Z,70.95898
2023-01-12T23:34:51.949Z,71.14258
2023-01-12T23:36:51.905Z,70.85059
2023-01-12T23:38:51.909Z,70.79297
2023-01-12T23:40:52.257Z,71.18066
2023-01-12T23:44:00.840Z,70.89844
2023-01-12T23:46:00.863Z,71.18555
2023-01-12T23:48:00.872Z,70.89941
2023-01-12T23:50:00.793Z,70.87891
2023-01-12T23:52:00.822Z,71.03125
2023-01-12T23:54:00.762Z,71.21094
2023-01-12T23:56:00.720Z,71.41895
2023-01-12T23:58:33.493Z,71.30566
